Time;durP1;ratioP1;P1;durP2;ratioP2;P2;SDS_P1;SDS_P2;PMS_P1;PMS_P2;Temp;Humidity;BMP_temperature;BMP_pressure;BME280_temperature;BME280_humidity;BME280_pressure;Samples;Min_cycle;Max_cycle;Signal;HPM_P1;HPM_P2
2023/02/04 00:01:24;;;;;;;8.40;2.47;;;21.80;35.00;;;;;;5061531;28;20051;-48
2023/02/04 00:03:51;;;;;;;7.30;2.70;;;21.80;35.10;;;;;;5058408;28;20031;-50
2023/02/04 00:06:17;;;;;;;6.90;2.15;;;21.80;35.10;;;;;;5057388;28;20025;-52
2023/02/04 00:08:42;;;;;;;6.03;2.30;;;21.80;35.10;;;;;;5059006;28;20435;-52
2023/02/04 00:11:08;;;;;;;7.40;2.35;;;21.80;35.10;;;;;;5061647;28;20143;-52
2023/02/04 00:13:34;;;;;;;5.68;2.42;;;21.80;35.20;;;;;;5058897;28;20036;-46
2023/02/04 00:16:00;;;;;;;5.80;2.25;;;21.80;35.20;;;;;;5062599;28;20035;-53
2023/02/04 00:18:25;;;;;;;7.38;2.45;;;21.80;35.20;;;;;;5059358;28;20055;-54
2023/02/04 00:20:51;;;;;;;7.38;2.45;;;21.70;35.10;;;;;;5060144;28;20060;-49
2023/02/04 00:23:17;;;;;;;7.13;2.22;;;21.70;35.20;;;;;;5056200;28;20029;-50
2023/02/04 00:25:43;;;;;;;6.18;2.00;;;21.70;35.20;;;;;;5066729;28;20028;-50
2023/02/04 00:28:09;;;;;;;6.10;2.10;;;21.70;35.20;;;;;;5062813;28;20436;-46
2023/02/04 00:30:34;;;;;;;7.40;2.08;;;21.70;35.20;;;;;;5064959;28;20041;-46
2023/02/04 00:33:01;;;;;;;6.07;2.03;;;21.70;35.30;;;;;;5032909;28;20020;-46
2023/02/04 00:35:27;;;;;;;6.10;2.38;;;21.70;35.30;;;;;;5063556;28;20095;-52
2023/02/04 00:37:53;;;;;;;5.97;2.13;;;21.70;35.30;;;;;;5061550;28;20028;-53
2023/02/04 00:40:19;;;;;;;7.20;2.03;;;21.60;35.20;;;;;;5061453;28;20032;-54
2023/02/04 00:42:44;;;;;;;7.60;2.50;;;21.60;35.30;;;;;;5058669;28;20086;-47
2023/02/04 00:45:11;;;;;;;6.32;2.50;;;21.60;35.30;;;;;;5064315;28;20020;-48
2023/02/04 00:47:37;;;;;;;6.88;2.67;;;21.60;35.30;;;;;;5032122;28;20029;-46
2023/02/04 00:50:04;;;;;;;8.38;2.67;;;21.60;35.30;;;;;;5056725;28;20024;-48
2023/02/04 00:52:30;;;;;;;7.88;2.60;;;21.60;35.30;;;;;;5060734;28;20348;-47
2023/02/04 00:54:56;;;;;;;7.40;2.47;;;21.50;35.30;;;;;;5060680;28;20028;-52
2023/02/04 00:57:22;;;;;;;5.45;2.22;;;21.50;35.30;;;;;;5059334;28;20040;-48
2023/02/04 00:59:48;;;;;;;6.40;2.42;;;21.60;35.40;;;;;;5040610;28;20045;-52
2023/02/04 01:02:13;;;;;;;5.68;2.15;;;21.60;35.40;;;;;;5060495;28;20044;-53
2023/02/04 01:04:39;;;;;;;6.45;2.17;;;21.60;35.40;;;;;;5041206;28;20033;-48
2023/02/04 01:07:05;;;;;;;6.80;2.30;;;21.50;35.30;;;;;;5041350;28;20037;-48
2023/02/04 01:09:31;;;;;;;5.13;1.98;;;21.50;35.40;;;;;;5038234;28;20036;-49
2023/02/04 01:11:57;;;;;;;5.65;2.13;;;21.50;35.40;;;;;;5057852;28;20086;-47
2023/02/04 01:14:22;;;;;;;6.95;2.58;;;21.50;35.40;;;;;;5057513;28;20048;-51
2023/02/04 01:16:48;;;;;;;6.97;2.10;;;21.50;35.40;;;;;;5056542;28;20068;-52
2023/02/04 01:19:15;;;;;;;5.80;2.35;;;21.50;35.40;;;;;;5042934;28;20474;-52
2023/02/04 01:21:40;;;;;;;8.00;2.42;;;21.50;35.60;;;;;;5043151;28;20078;-54
2023/02/04 01:24:06;;;;;;;5.78;1.83;;;21.50;35.60;;;;;;5065420;28;20036;-52
2023/02/04 01:26:52;;;;;;;9.68;2.33;;;21.50;35.50;;;;;;5063778;28;20083;-54
2023/02/04 01:29:18;;;;;;;7.57;2.40;;;21.50;35.50;;;;;;5062475;28;20060;-51
2023/02/04 01:31:44;;;;;;;6.15;2.00;;;21.50;35.50;;;;;;5062902;28;20436;-52
2023/02/04 01:34:09;;;;;;;6.72;2.13;;;21.50;35.50;;;;;;5060915;28;20104;-53
2023/02/04 01:36:35;;;;;;;5.35;2.05;;;21.40;35.40;;;;;;5047101;28;20033;-51
2023/02/04 01:39:02;;;;;;;9.07;2.58;;;21.50;35.50;;;;;;5064503;28;20059;-51
2023/02/04 01:41:28;;;;;;;7.35;2.42;;;21.40;35.40;;;;;;5059721;28;20049;-50
2023/02/04 01:43:54;;;;;;;6.70;2.75;;;21.40;35.50;;;;;;5040702;28;20032;-52
2023/02/04 01:46:20;;;;;;;8.82;2.17;;;21.40;35.40;;;;;;5039401;28;20032;-49
2023/02/04 01:48:46;;;;;;;5.68;2.17;;;21.40;35.40;;;;;;5042707;28;20090;-53
2023/02/04 01:51:15;;;;;;;8.73;2.38;;;21.40;35.40;;;;;;5063481;28;20504;-52
2023/02/04 01:53:42;;;;;;;7.25;2.45;;;21.40;35.40;;;;;;5045359;28;20036;-54
2023/02/04 01:56:17;;;;;;;7.20;2.10;;;21.40;35.50;;;;;;5044863;28;20052;-52
2023/02/04 01:58:44;;;;;;;6.75;2.38;;;21.40;35.50;;;;;;5041156;28;20121;-54
2023/02/04 02:01:14;;;;;;;5.10;1.92;;;21.40;35.60;;;;;;5046564;28;20078;-54
2023/02/04 02:03:40;;;;;;;6.25;2.15;;;21.40;35.60;;;;;;5061050;28;20029;-52
2023/02/04 02:06:09;;;;;;;5.95;2.03;;;21.40;35.60;;;;;;5044222;28;20111;-50
2023/02/04 02:08:36;;;;;;;7.00;2.25;;;21.30;35.50;;;;;;5063663;28;20104;-51
2023/02/04 02:11:02;;;;;;;6.15;2.10;;;21.30;35.50;;;;;;5059102;28;20043;-54
2023/02/04 02:13:28;;;;;;;5.90;1.80;;;21.30;35.40;;;;;;5059957;28;20041;-53
2023/02/04 02:15:54;;;;;;;6.20;2.22;;;21.30;35.40;;;;;;5044084;28;20025;-54
2023/02/04 02:18:20;;;;;;;6.05;2.00;;;21.30;35.50;;;;;;5058857;28;20037;-52
2023/02/04 02:20:46;;;;;;;7.28;2.20;;;21.30;35.50;;;;;;5043123;28;20112;-57
2023/02/04 02:23:31;;;;;;;6.55;2.55;;;21.30;35.50;;;;;;5043012;28;20429;-55
2023/02/04 02:25:56;;;;;;;8.50;2.35;;;21.30;35.60;;;;;;5059080;28;20029;-52
2023/02/04 02:28:23;;;;;;;6.18;2.10;;;21.30;35.60;;;;;;5058037;28;20117;-50
2023/02/04 02:30:50;;;;;;;5.72;1.92;;;21.30;35.60;;;;;;5064912;28;20036;-53
2023/02/04 02:33:18;;;;;;;6.35;2.22;;;21.30;35.60;;;;;;5044251;28;20033;-56
2023/02/04 02:35:47;;;;;;;7.45;2.15;;;21.30;35.60;;;;;;5061109;28;20483;-55
2023/02/04 02:38:14;;;;;;;6.20;2.03;;;21.20;35.60;;;;;;5061334;28;20351;-55
2023/02/04 02:40:40;;;;;;;6.35;1.83;;;21.20;35.60;;;;;;5065115;28;20033;-55
2023/02/04 02:43:08;;;;;;;6.55;2.03;;;21.20;35.60;;;;;;5041463;28;20036;-56
2023/02/04 02:45:34;;;;;;;5.97;2.05;;;21.20;35.60;;;;;;5060797;28;20025;-56
2023/02/04 02:48:03;;;;;;;7.22;1.98;;;21.20;35.60;;;;;;5064627;28;20024;-55
2023/02/04 02:50:31;;;;;;;5.82;2.00;;;21.20;35.60;;;;;;5063896;28;20044;-56
2023/02/04 02:52:59;;;;;;;6.28;2.10;;;21.20;35.60;;;;;;5042743;28;20047;-56
2023/02/04 02:55:27;;;;;;;5.93;2.28;;;21.20;35.70;;;;;;5059058;28;20357;-53
2023/02/04 02:57:55;;;;;;;7.00;2.47;;;21.20;35.70;;;;;;5040451;28;20121;-52
2023/02/04 03:00:26;;;;;;;5.47;1.85;;;21.20;35.70;;;;;;5062795;28;20035;-51
2023/02/04 03:03:05;;;;;;;6.77;2.43;;;21.20;35.70;;;;;;5041845;28;20386;-54
2023/02/04 03:05:36;;;;;;;6.53;1.70;;;21.20;35.70;;;;;;5044772;28;20286;-52
2023/02/04 03:08:03;;;;;;;5.68;1.80;;;21.20;35.70;;;;;;5055333;28;20036;-54
2023/02/04 03:10:29;;;;;;;4.38;1.55;;;21.20;35.80;;;;;;5061053;28;20025;-52
2023/02/04 03:12:55;;;;;;;5.57;1.75;;;21.20;35.80;;;;;;5058809;28;20029;-53
2023/02/04 03:15:22;;;;;;;6.03;1.85;;;21.20;35.80;;;;;;5037064;28;20020;-53
2023/02/04 03:17:48;;;;;;;6.68;2.35;;;21.10;35.70;;;;;;5045206;28;20031;-53
2023/02/04 03:20:15;;;;;;;7.45;2.40;;;21.10;35.70;;;;;;5044491;28;20036;-56
2023/02/04 03:22:42;;;;;;;7.70;2.03;;;21.10;35.70;;;;;;5045459;28;20028;-54
2023/02/04 03:25:08;;;;;;;6.70;2.22;;;21.10;35.70;;;;;;5066528;28;20032;-51
2023/02/04 03:27:34;;;;;;;6.00;1.77;;;21.10;35.80;;;;;;5061258;28;20024;-50
2023/02/04 03:30:00;;;;;;;7.25;2.30;;;21.10;35.80;;;;;;5047610;28;20098;-49
2023/02/04 03:32:25;;;;;;;4.63;1.65;;;21.10;35.80;;;;;;5058624;28;20036;-49
2023/02/04 03:34:51;;;;;;;5.65;2.03;;;21.10;35.90;;;;;;5065470;28;20029;-51
2023/02/04 03:37:17;;;;;;;5.07;1.80;;;21.10;35.90;;;;;;5058462;28;20075;-55
2023/02/04 03:39:43;;;;;;;4.75;1.80;;;21.10;35.90;;;;;;5068123;28;20028;-54
2023/02/04 03:42:09;;;;;;;7.70;2.20;;;21.10;35.90;;;;;;5056688;28;20021;-54
2023/02/04 03:44:34;;;;;;;7.25;2.42;;;21.10;35.90;;;;;;5059560;28;20029;-56
2023/02/04 03:47:00;;;;;;;6.00;1.52;;;21.10;35.90;;;;;;5060104;28;20035;-56
2023/02/04 03:49:27;;;;;;;6.35;1.98;;;21.00;35.90;;;;;;5061156;28;20036;-51
2023/02/04 03:51:53;;;;;;;6.78;1.80;;;21.00;35.90;;;;;;5067409;28;20032;-54
2023/02/04 03:54:18;;;;;;;6.20;1.90;;;21.00;36.00;;;;;;5063843;28;20351;-50
2023/02/04 03:56:44;;;;;;;5.78;1.65;;;21.00;35.90;;;;;;5067249;28;20021;-50
2023/02/04 03:59:10;;;;;;;5.35;2.08;;;21.00;36.00;;;;;;5055881;28;20759;-51
2023/02/04 04:01:36;;;;;;;7.28;2.20;;;21.00;36.00;;;;;;5061811;28;20025;-52
2023/02/04 04:04:01;;;;;;;6.70;2.10;;;21.00;36.00;;;;;;5058983;28;20029;-56
2023/02/04 04:06:27;;;;;;;6.50;1.77;;;21.00;36.00;;;;;;5065692;28;20459;-55
2023/02/04 04:08:53;;;;;;;5.20;1.92;;;21.00;36.00;;;;;;5057178;28;20075;-55
2023/02/04 04:11:20;;;;;;;8.15;2.55;;;21.00;36.10;;;;;;5063105;28;20090;-50
2023/02/04 04:13:46;;;;;;;7.93;2.17;;;21.00;36.10;;;;;;5037981;28;20034;-54
2023/02/04 04:16:12;;;;;;;5.90;2.10;;;21.00;36.10;;;;;;5041213;28;20475;-52
2023/02/04 04:18:38;;;;;;;4.95;1.95;;;21.00;36.10;;;;;;5035643;28;20040;-52
2023/02/04 04:21:04;;;;;;;5.82;1.90;;;21.00;36.10;;;;;;5041417;28;20024;-56
2023/02/04 04:23:30;;;;;;;7.00;2.13;;;21.00;36.20;;;;;;5040652;28;20317;-49
2023/02/04 04:25:55;;;;;;;6.38;2.30;;;20.90;36.10;;;;;;5040039;28;20074;-52
2023/02/04 04:28:21;;;;;;;6.80;2.10;;;21.00;36.20;;;;;;5041738;28;20033;-55
2023/02/04 04:30:47;;;;;;;6.10;2.08;;;20.90;36.20;;;;;;5040401;28;20354;-55
2023/02/04 04:33:13;;;;;;;6.35;2.45;;;20.90;36.20;;;;;;5042202;28;20064;-53
2023/02/04 04:35:39;;;;;;;6.75;2.10;;;20.90;36.20;;;;;;5035921;28;20018;-53
2023/02/04 04:38:04;;;;;;;5.93;2.30;;;20.90;36.30;;;;;;5040707;28;20108;-49
2023/02/04 04:40:30;;;;;;;7.35;2.42;;;20.90;36.30;;;;;;5038786;28;20086;-54
2023/02/04 04:42:56;;;;;;;8.85;2.58;;;20.90;36.30;;;;;;5045410;28;20436;-51
2023/02/04 04:45:22;;;;;;;7.32;2.55;;;20.90;36.40;;;;;;5040573;28;20025;-56
2023/02/04 04:47:48;;;;;;;6.70;2.30;;;20.90;36.40;;;;;;5044804;28;20022;-51
2023/02/04 04:50:14;;;;;;;8.48;2.13;;;20.90;36.40;;;;;;5041172;28;20094;-56
2023/02/04 04:52:39;;;;;;;6.20;1.90;;;20.90;36.40;;;;;;5039081;28;20038;-54
2023/02/04 04:55:07;;;;;;;9.18;2.60;;;20.90;36.40;;;;;;5043770;28;20064;-54
2023/02/04 04:57:33;;;;;;;6.80;2.28;;;20.90;36.40;;;;;;5044347;28;20025;-51
2023/02/04 04:59:59;;;;;;;7.88;2.33;;;20.90;36.40;;;;;;5044552;28;20041;-53
2023/02/04 05:02:25;;;;;;;4.68;1.75;;;20.90;36.40;;;;;;5047903;28;20400;-50
2023/02/04 05:04:50;;;;;;;8.30;2.60;;;20.80;36.40;;;;;;5041666;28;20364;-52
2023/02/04 05:07:16;;;;;;;6.75;2.00;;;20.90;36.50;;;;;;5040604;28;20112;-50
2023/02/04 05:09:42;;;;;;;5.75;2.10;;;20.80;36.40;;;;;;5046822;28;20030;-50
2023/02/04 05:12:08;;;;;;;5.88;2.13;;;20.80;36.50;;;;;;5045617;28;20026;-51
2023/02/04 05:14:34;;;;;;;7.05;2.15;;;20.80;36.50;;;;;;5058947;28;20372;-53
2023/02/04 05:16:59;;;;;;;5.65;2.33;;;20.80;36.50;;;;;;5059675;28;20021;-52
2023/02/04 05:19:25;;;;;;;6.18;2.05;;;20.80;36.50;;;;;;5061405;28;20448;-52
2023/02/04 05:21:51;;;;;;;8.25;2.30;;;20.80;36.60;;;;;;5065441;28;20067;-49
2023/02/04 05:24:17;;;;;;;6.90;2.20;;;20.80;36.60;;;;;;5061882;28;20100;-48
2023/02/04 05:26:43;;;;;;;5.65;2.17;;;20.80;36.70;;;;;;5060716;28;20356;-49
2023/02/04 05:29:09;;;;;;;7.55;2.03;;;20.80;36.70;;;;;;5064368;28;20083;-53
2023/02/04 05:31:35;;;;;;;5.82;2.47;;;20.80;36.70;;;;;;5060497;28;20075;-50
2023/02/04 05:34:01;;;;;;;6.68;2.10;;;20.80;36.70;;;;;;5062246;28;20053;-47
2023/02/04 05:36:26;;;;;;;8.98;2.95;;;20.80;36.70;;;;;;5059126;28;20035;-55
2023/02/04 05:38:52;;;;;;;5.82;2.10;;;20.80;36.70;;;;;;5062935;28;20364;-51
2023/02/04 05:41:18;;;;;;;7.40;2.38;;;20.80;36.80;;;;;;5062416;28;20329;-53
2023/02/04 05:43:44;;;;;;;6.10;2.10;;;20.80;36.80;;;;;;5059551;28;20167;-50
2023/02/04 05:46:10;;;;;;;4.85;2.03;;;20.80;36.80;;;;;;5060730;28;20440;-47
2023/02/04 05:48:35;;;;;;;5.97;2.33;;;20.70;36.80;;;;;;5061092;28;20539;-50
2023/02/04 05:51:01;;;;;;;6.07;2.35;;;20.70;36.80;;;;;;5064427;28;20100;-52
2023/02/04 05:53:27;;;;;;;5.90;2.13;;;20.70;36.80;;;;;;5062497;28;20043;-52
2023/02/04 05:55:53;;;;;;;6.30;2.20;;;20.70;36.80;;;;;;5062680;28;20040;-51
2023/02/04 05:58:19;;;;;;;5.88;2.05;;;20.70;36.80;;;;;;5057770;28;20033;-52
2023/02/04 06:00:44;;;;;;;6.95;2.10;;;20.70;36.80;;;;;;5058659;28;20387;-51
2023/02/04 06:03:10;;;;;;;8.15;2.45;;;20.70;36.90;;;;;;5063129;28;20090;-53
2023/02/04 06:05:36;;;;;;;7.32;2.33;;;20.70;36.90;;;;;;5063353;28;20021;-50
2023/02/04 06:08:02;;;;;;;6.60;2.25;;;20.70;36.90;;;;;;5057573;28;20468;-48
2023/02/04 06:10:28;;;;;;;7.38;2.50;;;20.70;36.90;;;;;;5062562;28;20386;-51
2023/02/04 06:12:54;;;;;;;7.53;2.10;;;20.70;36.90;;;;;;5058006;28;20093;-54
2023/02/04 06:15:20;;;;;;;7.28;2.00;;;20.70;36.90;;;;;;5061891;28;20017;-53
2023/02/04 06:17:45;;;;;;;7.05;2.67;;;20.70;36.90;;;;;;5065793;28;20440;-53
2023/02/04 06:20:13;;;;;;;6.63;2.40;;;20.70;36.90;;;;;;5058890;28;20483;-54
2023/02/04 06:22:39;;;;;;;6.15;2.25;;;20.70;37.00;;;;;;5061450;28;20044;-53
2023/02/04 06:25:06;;;;;;;7.70;2.10;;;20.70;37.10;;;;;;5060662;28;20499;-49
2023/02/04 06:27:31;;;;;;;6.53;2.17;;;20.70;37.00;;;;;;5057921;28;20502;-54
2023/02/04 06:29:57;;;;;;;6.78;2.35;;;20.60;36.90;;;;;;5059765;28;20024;-53
2023/02/04 06:32:23;;;;;;;7.90;2.15;;;20.60;36.90;;;;;;5060593;28;20037;-50
2023/02/04 06:34:49;;;;;;;6.78;2.10;;;20.70;37.00;;;;;;5064207;28;20039;-52
2023/02/04 06:37:16;;;;;;;6.63;2.20;;;20.60;36.90;;;;;;5067350;28;20029;-55
2023/02/04 06:39:42;;;;;;;6.68;2.50;;;20.70;37.00;;;;;;5059460;28;20059;-51
2023/02/04 06:42:08;;;;;;;6.90;2.03;;;20.60;36.90;;;;;;5061966;28;20021;-55
2023/02/04 06:44:34;;;;;;;8.90;2.75;;;20.60;36.90;;;;;;5061098;28;20025;-55
2023/02/04 06:47:00;;;;;;;7.22;2.17;;;20.60;36.90;;;;;;5061443;28;21909;-50
2023/02/04 06:49:26;;;;;;;6.20;1.95;;;20.60;36.90;;;;;;5059469;28;20060;-52
2023/02/04 06:51:52;;;;;;;7.03;2.08;;;20.60;36.90;;;;;;5062738;28;20025;-51
2023/02/04 06:54:17;;;;;;;6.95;2.28;;;20.60;36.90;;;;;;5062046;28;20111;-53
2023/02/04 06:56:43;;;;;;;6.60;2.10;;;20.60;36.90;;;;;;5061196;28;20048;-53
2023/02/04 06:59:10;;;;;;;7.80;2.25;;;20.60;37.00;;;;;;5059564;28;20041;-49
2023/02/04 07:01:35;;;;;;;7.20;2.17;;;20.60;37.00;;;;;;5060998;28;20028;-52
2023/02/04 07:04:01;;;;;;;8.00;2.40;;;20.60;37.00;;;;;;5061075;28;20029;-53
2023/02/04 07:06:27;;;;;;;4.07;1.73;;;20.60;37.00;;;;;;5059007;28;20036;-54
2023/02/04 07:08:53;;;;;;;4.78;2.05;;;20.50;36.90;;;;;;5057065;28;20032;-52
2023/02/04 07:11:19;;;;;;;5.78;1.92;;;20.50;36.90;;;;;;5062377;28;20020;-50
2023/02/04 07:13:45;;;;;;;8.10;2.17;;;20.50;36.90;;;;;;5063402;28;20080;-53
2023/02/04 07:16:11;;;;;;;7.35;2.17;;;20.50;36.90;;;;;;5062210;28;20055;-53
2023/02/04 07:18:37;;;;;;;6.32;2.17;;;20.50;37.00;;;;;;5060356;28;20076;-47
2023/02/04 07:21:04;;;;;;;8.88;3.17;;;20.50;37.00;;;;;;5055711;28;20052;-51
2023/02/04 07:23:29;;;;;;;8.02;2.72;;;20.50;37.00;;;;;;5059889;28;20025;-53
2023/02/04 07:25:56;;;;;;;7.35;2.63;;;20.50;37.00;;;;;;5058796;28;20041;-53
2023/02/04 07:28:22;;;;;;;7.38;2.80;;;20.50;37.00;;;;;;5059544;28;20051;-54
2023/02/04 07:30:48;;;;;;;8.48;2.80;;;20.50;37.00;;;;;;5057893;28;20108;-55
2023/02/04 07:33:13;;;;;;;6.43;2.38;;;20.50;37.00;;;;;;5061372;28;20021;-55
2023/02/04 07:35:39;;;;;;;6.47;2.67;;;20.50;37.10;;;;;;5057535;28;20032;-54
2023/02/04 07:38:05;;;;;;;9.80;2.60;;;20.50;37.10;;;;;;5067215;28;20075;-48
2023/02/04 07:40:31;;;;;;;7.32;2.47;;;20.50;37.10;;;;;;5060006;28;20413;-52
2023/02/04 07:42:57;;;;;;;6.97;2.53;;;20.50;37.20;;;;;;5057805;28;20447;-54
2023/02/04 07:45:23;;;;;;;6.75;2.10;;;20.50;37.10;;;;;;5050066;28;20025;-53
2023/02/04 07:47:49;;;;;;;8.98;2.65;;;20.50;37.20;;;;;;5052535;28;20032;-51
2023/02/04 07:50:15;;;;;;;8.73;2.72;;;20.50;37.20;;;;;;5055683;28;20028;-53
2023/02/04 07:52:41;;;;;;;9.38;2.42;;;20.50;37.20;;;;;;5059561;28;20063;-51
2023/02/04 07:55:07;;;;;;;8.18;2.45;;;20.50;37.20;;;;;;5058421;28;20028;-49
2023/02/04 07:57:34;;;;;;;7.38;2.88;;;20.50;37.20;;;;;;5057072;28;20388;-51
2023/02/04 08:00:04;;;;;;;10.18;3.08;;;20.50;37.20;;;;;;5057346;28;20401;-53
2023/02/04 08:02:38;;;;;;;6.18;2.60;;;20.50;37.30;;;;;;5058948;28;20562;-52
2023/02/04 08:05:05;;;;;;;7.35;2.85;;;20.50;37.30;;;;;;5055498;28;20032;-54
2023/02/04 08:07:33;;;;;;;10.80;3.67;;;20.50;37.50;;;;;;5035480;28;20033;-51
2023/02/04 08:10:01;;;;;;;9.05;3.08;;;20.50;37.80;;;;;;5057012;28;20025;-49
2023/02/04 08:12:27;;;;;;;9.10;3.30;;;20.50;38.10;;;;;;5057409;28;20028;-53
2023/02/04 08:14:53;;;;;;;7.63;3.40;;;20.50;38.30;;;;;;5058208;28;20040;-54
2023/02/04 08:17:19;;;;;;;9.02;4.50;;;20.60;38.30;;;;;;5053677;28;20029;-55
2023/02/04 08:19:45;;;;;;;11.52;4.93;;;20.70;38.30;;;;;;5032166;28;20126;-56
2023/02/04 08:22:11;;;;;;;12.52;5.57;;;20.70;38.30;;;;;;5055520;28;20064;-53
2023/02/04 08:24:37;;;;;;;11.75;6.47;;;20.80;38.30;;;;;;5053919;28;20623;-53
2023/02/04 08:27:02;;;;;;;13.68;6.70;;;20.80;38.30;;;;;;5054339;28;20036;-56
2023/02/04 08:29:28;;;;;;;13.90;7.13;;;20.80;38.30;;;;;;5059241;28;20082;-54
2023/02/04 08:31:54;;;;;;;14.50;7.45;;;20.90;38.40;;;;;;5033826;28;20039;-54
2023/02/04 08:34:20;;;;;;;13.95;7.60;;;21.00;38.40;;;;;;5053932;28;20056;-54
2023/02/04 08:36:46;;;;;;;13.27;7.80;;;21.00;38.40;;;;;;5056680;28;20029;-55
2023/02/04 08:39:12;;;;;;;13.13;7.47;;;21.00;38.30;;;;;;5054997;28;20532;-53
2023/02/04 08:41:38;;;;;;;13.15;7.90;;;21.10;38.40;;;;;;5056381;28;20044;-51
2023/02/04 08:44:04;;;;;;;15.80;7.97;;;21.10;38.40;;;;;;5056687;28;20078;-52
2023/02/04 08:46:30;;;;;;;13.85;8.57;;;21.20;38.40;;;;;;5059786;28;20380;-56
2023/02/04 08:48:55;;;;;;;14.48;8.25;;;21.20;38.30;;;;;;5057057;28;20094;-56
2023/02/04 08:51:28;;;;;;;15.05;9.40;;;21.20;38.30;;;;;;5053050;28;20048;-55
2023/02/04 08:53:54;;;;;;;14.38;9.02;;;21.30;38.30;;;;;;5055068;28;20364;-55
2023/02/04 08:56:20;;;;;;;16.23;9.73;;;21.40;38.40;;;;;;5053970;28;20033;-51
2023/02/04 08:58:51;;;;;;;15.35;9.70;;;21.40;38.30;;;;;;5052583;28;20024;-54
2023/02/04 09:01:18;;;;;;;15.52;10.50;;;21.40;38.20;;;;;;5052196;28;20021;-56
2023/02/04 09:03:44;;;;;;;16.48;10.23;;;21.50;38.20;;;;;;5056236;28;20040;-55
2023/02/04 09:06:10;;;;;;;15.57;10.38;;;21.50;38.20;;;;;;5052657;28;20029;-53
2023/02/04 09:08:36;;;;;;;17.27;10.80;;;21.50;38.10;;;;;;5056648;28;20059;-54
2023/02/04 09:11:03;;;;;;;17.35;11.80;;;21.60;38.20;;;;;;5065014;28;20364;-54
2023/02/04 09:13:29;;;;;;;15.70;10.60;;;21.60;38.10;;;;;;5055546;28;20466;-52
2023/02/04 09:15:55;;;;;;;20.58;11.07;;;21.60;38.10;;;;;;5055933;28;20712;-50
2023/02/04 09:18:23;;;;;;;17.48;10.68;;;21.70;38.30;;;;;;5055044;28;20112;-54
2023/02/04 09:20:49;;;;;;;16.42;10.93;;;21.70;38.20;;;;;;5059881;28;20033;-52
2023/02/04 09:23:16;;;;;;;16.52;11.38;;;21.70;38.20;;;;;;5057445;28;20116;-54
2023/02/04 09:25:43;;;;;;;20.05;12.57;;;21.80;38.20;;;;;;5052962;28;20031;-48
2023/02/04 09:28:11;;;;;;;18.77;11.73;;;21.80;38.20;;;;;;5055758;28;20117;-51
2023/02/04 09:30:41;;;;;;;16.83;11.25;;;21.80;38.20;;;;;;5054443;28;20039;-54
2023/02/04 09:33:08;;;;;;;19.35;11.70;;;21.80;38.10;;;;;;5031546;28;21873;-55
2023/02/04 09:35:33;;;;;;;20.20;12.43;;;21.90;38.10;;;;;;5057412;28;20059;-51
2023/02/04 09:38:00;;;;;;;17.67;12.10;;;21.80;38.10;;;;;;5055918;28;20083;-49
2023/02/04 09:40:29;;;;;;;19.30;12.52;;;21.90;38.10;;;;;;5060752;28;20044;-51
2023/02/04 09:42:57;;;;;;;19.38;12.55;;;21.90;38.00;;;;;;5067212;28;20270;-53
2023/02/04 09:45:28;;;;;;;16.63;11.63;;;21.90;38.70;;;;;;5056628;28;20032;-53
2023/02/04 09:47:56;;;;;;;17.23;11.77;;;21.90;38.00;;;;;;5059803;28;20021;-50
2023/02/04 09:50:25;;;;;;;20.95;12.52;;;21.90;38.00;;;;;;5060543;28;20025;-52
2023/02/04 09:52:53;;;;;;;20.13;11.55;;;21.90;37.90;;;;;;5056830;28;20132;-52
2023/02/04 09:55:21;;;;;;;17.77;11.88;;;21.90;37.90;;;;;;5056644;28;22696;-54
2023/02/04 09:57:47;;;;;;;20.20;12.35;;;21.90;37.80;;;;;;5056284;28;20037;-51
2023/02/04 10:00:23;;;;;;;20.05;10.75;;;21.90;38.10;;;;;;5039164;28;20483;-47
2023/02/04 10:02:49;;;;;;;16.63;11.15;;;22.00;38.30;;;;;;5043111;28;20504;-52
2023/02/04 10:05:18;;;;;;;17.17;10.93;;;22.00;38.30;;;;;;5057484;28;20128;-52
2023/02/04 10:07:45;;;;;;;17.55;10.48;;;22.00;38.30;;;;;;5057171;28;20107;-49
2023/02/04 10:10:24;;;;;;;16.88;9.85;;;22.00;38.20;;;;;;5058839;28;20033;-48
2023/02/04 10:12:56;;;;;;;16.92;10.00;;;22.00;38.20;;;;;;5063055;28;20029;-49
2023/02/04 10:15:22;;;;;;;17.17;10.27;;;22.10;38.10;;;;;;5061704;28;20029;-51
2023/02/04 10:17:54;;;;;;;16.55;10.32;;;22.10;38.10;;;;;;5063780;28;20326;-48
2023/02/04 10:20:22;;;;;;;17.10;10.57;;;22.10;38.20;;;;;;5040046;28;20033;-47
2023/02/04 10:22:53;;;;;;;18.05;12.77;;;22.10;38.20;;;;;;5055448;28;21035;-53
2023/02/04 10:25:22;;;;;;;22.35;13.23;;;22.10;38.30;;;;;;5059406;28;20057;-49
2023/02/04 10:27:56;;;;;;;23.95;12.80;;;22.20;38.50;;;;;;5057935;28;20029;-48
2023/02/04 10:30:27;;;;;;;17.30;11.70;;;22.20;38.60;;;;;;5058775;28;20444;-54
2023/02/04 10:32:53;;;;;;;20.83;11.10;;;22.20;38.50;;;;;;5055527;28;20052;-48
2023/02/04 10:35:21;;;;;;;21.45;11.10;;;22.20;38.80;;;;;;5058963;28;20097;-55
2023/02/04 10:38:00;;;;;;;17.98;10.80;;;22.20;38.50;;;;;;5057991;28;20542;-54
2023/02/04 10:40:34;;;;;;;28.10;11.52;;;22.20;38.60;;;;;;5051038;28;20119;-56
2023/02/04 10:43:09;;;;;;;28.33;13.43;;;22.30;39.00;;;;;;5059435;28;20016;-49
2023/02/04 10:45:35;;;;;;;22.42;13.18;;;22.30;39.20;;;;;;5059194;28;20024;-55
2023/02/04 10:48:01;;;;;;;19.90;13.05;;;22.40;39.40;;;;;;5062620;28;20357;-52
2023/02/04 10:50:29;;;;;;;23.23;13.98;;;22.40;39.40;;;;;;5062550;28;20090;-56
2023/02/04 10:55:46;;;;;;;23.15;13.43;;;22.60;39.50;;;;;;5064229;28;20037;-52
2023/02/04 10:58:17;;;;;;;19.95;13.25;;;22.80;39.30;;;;;;5056847;28;20107;-54
2023/02/04 11:00:43;;;;;;;18.33;12.30;;;22.90;39.00;;;;;;5059622;28;20059;-52
2023/02/04 11:03:15;;;;;;;18.73;11.82;;;22.90;38.60;;;;;;5031789;28;20024;-54
2023/02/04 11:05:41;;;;;;;19.42;11.32;;;23.00;38.20;;;;;;5058579;28;20040;-52
2023/02/04 11:08:27;;;;;;;23.98;11.23;;;23.10;37.80;;;;;;5059053;28;20098;-54
2023/02/04 11:11:00;;;;;;;20.88;11.23;;;23.20;37.50;;;;;;5057345;28;20119;-53
2023/02/04 11:13:49;;;;;;;18.17;10.65;;;23.20;37.00;;;;;;5062303;28;20037;-52
2023/02/04 11:16:25;;;;;;;16.10;10.00;;;23.30;36.70;;;;;;5057842;28;20029;-52
2023/02/04 11:19:26;;;;;;;17.48;9.93;;;23.40;36.40;;;;;;5057851;28;20452;-52
2023/02/04 11:22:03;;;;;;;15.25;9.15;;;23.40;36.20;;;;;;5049243;28;20047;-54
2023/02/04 11:24:32;;;;;;;17.42;9.52;;;23.40;36.10;;;;;;5066141;28;20331;-54
2023/02/04 11:27:07;;;;;;;18.17;10.20;;;23.40;35.90;;;;;;5064719;28;20029;-53
2023/02/04 11:29:37;;;;;;;16.08;9.38;;;23.40;35.70;;;;;;5060907;28;20134;-55
2023/02/04 11:32:26;;;;;;;15.50;9.98;;;23.40;36.30;;;;;;5063700;28;20025;-52
2023/02/04 11:34:52;;;;;;;16.60;9.40;;;23.40;35.60;;;;;;5064592;28;20028;-55
2023/02/04 11:37:27;;;;;;;13.90;9.35;;;23.40;35.90;;;;;;5064183;28;20020;-58
2023/02/04 11:39:57;;;;;;;13.25;8.13;;;23.40;36.10;;;;;;5046523;28;20422;-55
2023/02/04 11:42:44;;;;;;;13.70;7.82;;;23.40;36.00;;;;;;5065222;28;20094;-58
2023/02/04 11:45:15;;;;;;;14.60;7.57;;;23.40;35.90;;;;;;5062434;28;20041;-52
2023/02/04 11:47:41;;;;;;;14.80;7.82;;;23.40;35.80;;;;;;5064659;28;20032;-58
2023/02/04 11:50:24;;;;;;;12.98;7.85;;;23.50;35.80;;;;;;5057636;28;20025;-56
2023/02/04 11:52:53;;;;;;;12.75;7.25;;;23.50;35.60;;;;;;5063634;28;20024;-49
2023/02/04 11:55:19;;;;;;;13.38;8.52;;;23.40;35.40;;;;;;5063644;28;20033;-50
2023/02/04 11:57:45;;;;;;;15.13;8.70;;;23.40;35.40;;;;;;5064383;28;20130;-54
2023/02/04 12:00:24;;;;;;;15.60;9.65;;;23.40;35.30;;;;;;5063028;28;20045;-56
2023/02/04 12:02:59;;;;;;;16.08;10.65;;;23.40;35.20;;;;;;5059077;28;20047;-53
2023/02/04 12:05:40;;;;;;;18.70;11.10;;;23.40;35.20;;;;;;5057926;28;20368;-55
2023/02/04 12:08:21;;;;;;;21.65;12.15;;;23.40;35.20;;;;;;5064149;28;20032;-52
2023/02/04 12:10:51;;;;;;;21.38;14.43;;;23.40;35.20;;;;;;5066780;28;20031;-52
2023/02/04 12:13:23;;;;;;;19.58;13.75;;;23.40;35.30;;;;;;5055598;28;20093;-53
2023/02/04 12:16:08;;;;;;;23.00;14.95;;;23.40;35.40;;;;;;5055258;28;20033;-55
2023/02/04 12:18:34;;;;;;;21.77;14.52;;;23.40;35.80;;;;;;5053856;28;20128;-56
2023/02/04 12:21:03;;;;;;;20.70;15.15;;;23.40;35.80;;;;;;5054753;28;20479;-53
2023/02/04 12:23:29;;;;;;;19.42;14.25;;;23.40;35.80;;;;;;5054348;28;20376;-54
2023/02/04 12:25:56;;;;;;;22.67;14.10;;;23.40;35.70;;;;;;5055022;28;20035;-52
2023/02/04 12:28:23;;;;;;;19.92;13.60;;;23.40;35.60;;;;;;5054533;28;20032;-53
2023/02/04 12:30:49;;;;;;;23.50;13.20;;;23.40;35.50;;;;;;5057082;28;20036;-54
2023/02/04 12:33:15;;;;;;;17.52;12.07;;;23.40;35.40;;;;;;5056499;28;20021;-54
2023/02/04 12:35:41;;;;;;;18.67;12.82;;;23.40;35.20;;;;;;5034469;28;20033;-54
2023/02/04 12:38:08;;;;;;;17.70;11.85;;;23.40;35.10;;;;;;5062749;28;20032;-56
2023/02/04 12:40:34;;;;;;;16.05;11.25;;;23.40;34.90;;;;;;5057073;28;20037;-50
2023/02/04 12:42:59;;;;;;;18.58;11.82;;;23.40;34.80;;;;;;5057036;28;20528;-52
2023/02/04 12:45:25;;;;;;;16.40;12.15;;;23.40;34.70;;;;;;5062094;28;20177;-52